createdAt,value
2023-01-12T00:01:40.712Z,102284.53
2023-01-12T00:04:14.114Z,102286.41
2023-01-12T00:06:42.485Z,102302.25
2023-01-12T00:09:10.871Z,102288.47
2023-01-12T00:11:39.870Z,102291.97
2023-01-12T00:14:09.414Z,102290.00
2023-01-12T00:16:38.320Z,102291.75
2023-01-12T00:19:11.313Z,102291.00
2023-01-12T00:21:59.226Z,102284.09
2023-01-12T00:24:33.911Z,102284.97
2023-01-12T00:27:04.377Z,102289.34
2023-01-12T00:29:33.134Z,102291.97
2023-01-12T00:32:01.087Z,102290.34
2023-01-12T00:34:29.824Z,102286.75
2023-01-12T00:36:59.863Z,102286.94
2023-01-12T00:39:27.456Z,102289.25
2023-01-12T00:42:17.025Z,102289.06
2023-01-12T00:45:07.800Z,102286.59
2023-01-12T00:47:35.547Z,102276.22
2023-01-12T00:50:03.352Z,102284.19
2023-01-12T00:52:32.029Z,102270.41
2023-01-12T00:55:00.164Z,102276.50
2023-01-12T00:57:28.563Z,102270.91
2023-01-12T00:59:59.463Z,102271.81
2023-01-12T01:02:30.930Z,102268.38
2023-01-12T01:04:58.610Z,102260.78
2023-01-12T01:07:26.294Z,102255.25
2023-01-12T01:09:58.317Z,102255.06
2023-01-12T01:12:25.976Z,102246.34
2023-01-12T01:14:53.783Z,102251.41
2023-01-12T01:17:22.107Z,102244.41
2023-01-12T01:19:49.941Z,102255.78
2023-01-12T01:22:17.600Z,102247.34
2023-01-12T01:24:45.160Z,102255.88
2023-01-12T01:27:12.732Z,102254.25
2023-01-12T01:29:40.668Z,102259.19
2023-01-12T01:32:08.206Z,102260.72
2023-01-12T01:34:36.418Z,102259.66
2023-01-12T01:37:04.407Z,102260.00
2023-01-12T01:39:31.890Z,102266.41
2023-01-12T01:42:01.314Z,102263.94
2023-01-12T01:44:31.772Z,102262.34
2023-01-12T01:47:04.199Z,102261.09
2023-01-12T01:49:37.385Z,102250.84
2023-01-12T01:52:26.054Z,102265.25
2023-01-12T01:55:09.984Z,102265.16
2023-01-12T01:57:49.731Z,102268.44
2023-01-12T02:00:18.095Z,102273.56
2023-01-12T02:02:47.357Z,102263.91
2023-01-12T02:05:20.291Z,102261.41
2023-01-12T02:07:51.239Z,102256.44
2023-01-12T02:10:20.175Z,102255.66
2023-01-12T02:13:06.273Z,102251.06
2023-01-12T02:16:12.734Z,102248.66
2023-01-12T02:18:49.760Z,102262.09
2023-01-12T02:21:48.179Z,102257.97
2023-01-12T02:24:59.096Z,102258.03
2023-01-12T02:27:43.149Z,102269.38
2023-01-12T02:30:39.346Z,102261.03
2023-01-12T02:33:40.177Z,102260.22
2023-01-12T02:36:38.728Z,102256.13
2023-01-12T02:39:18.955Z,102257.09
2023-01-12T02:42:11.760Z,102242.56
2023-01-12T02:44:53.116Z,102247.00
2023-01-12T02:47:42.290Z,102240.78
2023-01-12T02:50:19.995Z,102232.25
2023-01-12T02:52:55.275Z,102234.09
2023-01-12T02:55:26.503Z,102231.44
2023-01-12T02:57:56.301Z,102234.94
2023-01-12T03:00:24.264Z,102235.25
2023-01-12T03:02:51.955Z,102230.19
2023-01-12T03:05:27.273Z,102217.19
2023-01-12T03:08:02.634Z,102211.03
2023-01-12T03:10:46.981Z,102216.97
2023-01-12T03:13:17.314Z,102211.09
2023-01-12T03:15:50.177Z,102206.13
2023-01-12T03:18:36.340Z,102217.19
2023-01-12T03:21:13.110Z,102213.72
2023-01-12T03:23:59.587Z,102212.91
2023-01-12T03:26:29.539Z,102220.97
2023-01-12T03:29:24.739Z,102211.41
2023-01-12T03:31:52.680Z,102210.63
2023-01-12T03:34:21.082Z,102216.78
2023-01-12T03:37:08.474Z,102209.16
2023-01-12T03:39:55.845Z,102216.38
2023-01-12T03:42:31.267Z,102205.75
2023-01-12T03:45:20.441Z,102209.25
2023-01-12T03:47:54.794Z,102211.75
2023-01-12T03:50:31.346Z,102210.28
2023-01-12T03:53:01.836Z,102196.31
2023-01-12T03:55:31.964Z,102212.16
2023-01-12T03:58:00.037Z,102203.47
2023-01-12T04:00:29.563Z,102200.69
2023-01-12T04:03:24.732Z,102200.44
2023-01-12T04:05:52.520Z,102194.50
2023-01-12T04:08:20.925Z,102196.25
2023-01-12T08:24:41.230Z,102116.53
2023-01-12T08:27:09.871Z,102109.88
2023-01-12T08:29:45.897Z,102105.16
2023-01-12T08:32:18.003Z,102101.75
2023-01-12T08:34:49.043Z,102101.84
2023-01-12T08:37:21.428Z,102095.75
2023-01-12T08:39:50.142Z,102096.38
2023-01-12T08:42:18.828Z,102101.53
2023-01-12T08:44:48.146Z,102104.34
2023-01-12T08:47:21.294Z,102101.56
2023-01-12T08:49:49.272Z,102103.59
2023-01-12T08:52:18.247Z,102092.88
2023-01-12T08:54:47.152Z,102092.78
2023-01-12T08:57:16.372Z,102092.00
2023-01-12T08:59:43.918Z,102090.41
2023-01-12T09:02:13.143Z,102084.06
2023-01-12T09:04:41.476Z,102083.31
2023-01-12T09:07:10.360Z,102084.88
2023-01-12T09:09:38.178Z,102085.72
2023-01-12T09:12:06.417Z,102084.03
2023-01-12T09:14:39.018Z,102091.47
2023-01-12T09:17:07.621Z,102070.16
2023-01-12T09:19:35.478Z,102080.53
2023-01-12T09:22:03.791Z,102070.31
2023-01-12T09:24:31.442Z,102073.22
2023-01-12T09:27:00.175Z,102070.66
2023-01-12T09:29:27.835Z,102065.34
2023-01-12T09:31:55.420Z,102071.00
2023-01-12T09:34:23.560Z,102067.31
2023-01-12T09:36:52.484Z,102068.97
2023-01-12T09:39:27.243Z,102073.22
2023-01-12T09:42:15.215Z,102068.06
2023-01-12T09:45:08.842Z,102071.84
2023-01-12T09:47:52.732Z,102063.56
2023-01-12T09:50:39.520Z,102054.97
2023-01-12T09:53:21.521Z,102061.16
2023-01-12T09:55:55.624Z,102063.75
2023-01-12T09:58:44.480Z,102061.16
2023-01-12T10:01:24.077Z,102049.13
2023-01-12T10:03:56.412Z,102055.19
2023-01-12T10:06:24.281Z,102044.63
2023-01-12T10:08:56.381Z,102050.94
2023-01-12T10:11:34.516Z,102041.44
2023-01-12T10:14:27.140Z,102041.53
2023-01-12T10:17:20.437Z,102039.84
2023-01-12T10:20:10.163Z,102037.00
2023-01-12T10:22:55.237Z,102037.78
2023-01-12T10:25:48.607Z,102036.06
2023-01-12T10:28:25.891Z,102033.66
2023-01-12T10:30:56.373Z,102038.03
2023-01-12T10:33:30.371Z,102035.50
2023-01-12T10:36:04.399Z,102032.16
2023-01-12T10:38:38.616Z,102028.84
2023-01-12T10:41:20.149Z,102033.28
2023-01-12T10:44:15.267Z,102022.28
2023-01-12T10:46:42.951Z,102012.81
2023-01-12T10:49:20.868Z,102014.50
2023-01-12T10:52:05.927Z,102005.84
2023-01-12T10:54:36.730Z,101999.94
2023-01-12T10:57:24.175Z,102001.66
2023-01-12T10:59:54.738Z,101998.00
2023-01-12T11:02:24.321Z,101993.72
2023-01-12T11:04:53.703Z,101995.53
2023-01-12T11:07:29.325Z,101997.22
2023-01-12T11:10:19.456Z,102000.41
2023-01-12T11:12:57.333Z,101991.97
2023-01-12T11:15:25.368Z,101991.38
2023-01-12T11:18:11.530Z,101998.22
2023-01-12T11:20:48.226Z,101991.47
2023-01-12T11:23:15.736Z,101989.13
2023-01-12T11:25:49.865Z,101982.13
2023-01-12T11:28:42.611Z,101979.56
2023-01-12T11:31:39.637Z,101981.22
2023-01-12T11:34:17.917Z,101978.78
2023-01-12T11:37:00.931Z,101982.28
2023-01-12T11:39:30.501Z,101977.97
2023-01-12T11:42:20.904Z,101975.41
2023-01-12T11:45:01.819Z,101983.97
2023-01-12T11:47:41.744Z,101974.53
2023-01-12T11:50:15.126Z,101970.34
2023-01-12T11:52:44.108Z,101961.63
2023-01-12T11:55:17.055Z,101970.38
2023-01-12T11:58:16.864Z,101967.91
2023-01-12T12:00:55.415Z,101973.91
2023-01-12T12:03:54.610Z,101977.53
2023-01-12T12:06:36.819Z,101974.13
2023-01-12T12:09:55.508Z,101982.03
2023-01-12T12:12:42.641Z,101979.47
2023-01-12T12:15:38.589Z,101982.91
2023-01-12T12:18:08.972Z,101985.31
2023-01-12T12:20:41.729Z,101989.53
2023-01-12T12:23:37.428Z,101991.09
2023-01-12T12:26:30.987Z,101996.34
2023-01-12T12:29:43.095Z,101991.16
2023-01-12T12:32:22.244Z,101992.97
2023-01-12T12:35:14.759Z,101994.09
2023-01-12T12:38:00.791Z,101994.81
2023-01-12T12:41:02.256Z,101999.16
2023-01-12T12:43:52.662Z,101992.13
2023-01-12T12:46:49.927Z,101992.19
2023-01-12T12:49:28.112Z,101992.22
2023-01-12T12:52:00.416Z,101986.06
2023-01-12T12:54:29.651Z,101991.47
2023-01-12T12:56:57.998Z,101993.19
2023-01-12T12:59:31.976Z,101995.78
2023-01-12T13:02:02.079Z,101986.06
2023-01-12T13:05:03.698Z,101989.44
2023-01-12T13:07:36.955Z,101987.59
2023-01-12T13:10:26.623Z,101980.69
2023-01-12T13:13:04.600Z,101981.56
2023-01-12T13:15:37.287Z,101975.56
2023-01-12T13:18:06.151Z,101969.50
2023-01-12T17:55:57.208Z,101905.75
2023-01-12T17:58:24.727Z,101906.56
2023-01-12T18:00:52.473Z,101906.66
2023-01-12T18:03:20.116Z,101899.72
2023-01-12T18:05:57.793Z,101895.47
2023-01-12T18:08:31.241Z,101891.88
2023-01-12T18:11:02.910Z,101890.19
2023-01-12T18:13:31.037Z,101894.44
2023-01-12T18:16:00.433Z,101888.41
2023-01-12T18:18:28.444Z,101896.16
2023-01-12T18:21:02.891Z,101891.00
2023-01-12T18:23:31.083Z,101889.34
2023-01-12T18:26:03.791Z,101892.75
2023-01-12T18:28:32.681Z,101889.44
2023-01-12T18:31:07.541Z,101891.34
2023-01-12T18:33:35.600Z,101895.59
2023-01-12T18:36:10.729Z,101895.53
2023-01-12T18:38:44.539Z,101891.13
2023-01-12T18:41:31.714Z,101895.59
2023-01-12T18:44:02.618Z,101897.34
2023-01-12T18:46:49.225Z,101893.06
2023-01-12T18:49:27.573Z,101891.16
2023-01-12T18:52:14.735Z,101888.63
2023-01-12T18:54:49.097Z,101892.88
2023-01-12T18:57:18.070Z,101891.91
2023-01-12T18:59:46.831Z,101888.50
2023-01-12T19:02:15.993Z,101889.63
2023-01-12T19:04:49.967Z,101893.88
2023-01-12T19:07:34.875Z,101891.41
2023-01-12T19:10:02.945Z,101891.69
2023-01-12T19:12:33.754Z,101893.34
2023-01-12T19:15:20.233Z,101898.50
2023-01-12T19:17:47.889Z,101910.63
2023-01-12T19:20:16.162Z,101900.97
2023-01-12T19:23:02.259Z,101899.25
2023-01-12T19:25:52.074Z,101899.25
2023-01-12T19:28:38.370Z,101895.88
2023-01-12T19:31:10.812Z,101887.88
2023-01-12T19:33:39.289Z,101897.22
2023-01-12T19:36:10.323Z,101906.84
2023-01-12T19:38:38.191Z,101900.78
2023-01-12T19:41:12.791Z,101907.81
2023-01-12T19:43:45.285Z,101910.44
2023-01-12T19:46:13.341Z,101913.06
2023-01-12T19:48:40.959Z,101915.72
2023-01-12T19:51:11.213Z,101925.09
2023-01-12T19:53:40.418Z,101927.78
2023-01-12T19:56:12.674Z,101916.47
2023-01-12T19:58:41.502Z,101925.13
2023-01-12T20:01:09.342Z,101918.19
2023-01-12T20:03:39.827Z,101921.47
2023-01-12T20:06:08.045Z,101923.38
2023-01-12T20:08:35.558Z,101926.72
2023-01-12T20:11:05.499Z,101920.59
2023-01-12T20:13:34.756Z,101921.50
2023-01-12T20:16:09.861Z,101920.94
2023-01-12T20:18:38.080Z,101920.97
2023-01-12T20:21:10.565Z,101918.34
2023-01-12T20:23:38.788Z,101920.19
2023-01-12T20:26:08.427Z,101917.53
2023-01-12T20:28:37.230Z,101910.41
2023-01-12T20:31:12.596Z,101914.72
2023-01-12T20:33:40.591Z,101924.34
2023-01-12T20:36:13.476Z,101917.56
2023-01-12T20:38:41.955Z,101916.66
2023-01-12T20:41:10.334Z,101913.31
2023-01-12T20:43:38.535Z,101907.28
2023-01-12T20:46:16.173Z,101903.81
2023-01-12T20:48:46.417Z,101906.59
2023-01-12T20:51:16.246Z,101898.13
2023-01-12T20:53:46.466Z,101904.25
2023-01-12T20:56:14.066Z,101904.97
2023-01-12T20:58:41.668Z,101890.19
2023-01-12T21:01:12.146Z,101897.06
2023-01-12T21:03:40.175Z,101891.91
2023-01-12T21:06:09.905Z,101887.53
2023-01-12T21:08:45.997Z,101890.25
2023-01-12T21:11:16.932Z,101892.00
2023-01-12T21:13:44.922Z,101883.44
2023-01-12T21:16:15.014Z,101878.38
2023-01-12T21:26:10.285Z,101871.53
2023-01-12T21:28:39.887Z,101882.69
2023-01-12T21:31:10.711Z,101883.63
2023-01-12T21:33:38.551Z,101870.78
2023-01-12T21:36:06.781Z,101876.16
2023-01-12T21:38:34.397Z,101870.06
2023-01-12T21:41:04.919Z,101858.66
2023-01-12T21:43:33.860Z,101858.66
2023-01-12T21:46:06.979Z,101866.38
2023-01-12T21:48:35.880Z,101863.91
2023-01-12T21:51:05.296Z,101862.31
2023-01-12T21:53:34.335Z,101865.78
2023-01-12T21:56:04.209Z,101867.66
2023-01-12T21:58:34.270Z,101853.81
2023-01-12T22:01:08.904Z,101860.75
2023-01-12T22:03:36.918Z,101862.59
2023-01-12T22:06:07.617Z,101850.56
2023-01-12T22:08:37.732Z,101855.78
2023-01-12T22:11:14.404Z,101846.25
2023-01-12T22:13:43.524Z,101834.97
2023-01-12T22:16:13.856Z,101839.34
2023-01-12T22:18:46.552Z,101841.91
2023-01-12T22:21:14.129Z,101838.59
2023-01-12T22:23:41.699Z,101842.00
2023-01-12T22:26:13.619Z,101847.25
2023-01-12T22:28:43.831Z,101851.59
2023-01-12T22:31:14.799Z,101846.25
2023-01-12T22:33:47.961Z,101839.28
2023-01-12T22:36:15.593Z,101834.16
2023-01-12T22:38:43.286Z,101842.94
2023-01-12T22:41:13.648Z,101846.59
2023-01-12T22:43:41.782Z,101851.94
2023-01-12T22:46:14.609Z,101844.13
2023-01-12T22:48:42.296Z,101845.97
2023-01-12T22:51:10.207Z,101845.78
2023-01-12T22:53:37.996Z,101847.38
2023-01-12T22:56:06.155Z,101843.91
2023-01-12T22:58:34.062Z,101840.56
2023-01-12T23:01:10.525Z,101847.56
2023-01-12T23:03:38.438Z,101841.47
2023-01-12T23:06:11.983Z,101844.09
2023-01-12T23:08:40.480Z,101844.97
2023-01-12T23:11:13.963Z,101840.66
2023-01-12T23:13:43.854Z,101839.69
2023-01-12T23:16:12.873Z,101841.47
2023-01-12T23:18:42.181Z,101838.97
2023-01-12T23:21:19.212Z,101826.84
2023-01-12T23:23:52.578Z,101837.25
2023-01-12T23:26:23.903Z,101827.72
2023-01-12T23:28:57.096Z,101830.28
2023-01-12T23:31:27.594Z,101834.59
2023-01-12T23:33:57.174Z,101825.03
2023-01-12T23:36:27.320Z,101825.91
2023-01-12T23:38:57.718Z,101831.19
2023-01-12T23:41:27.921Z,101835.56
2023-01-12T23:43:58.515Z,101827.81
2023-01-12T23:46:27.562Z,101840.00
2023-01-12T23:48:57.247Z,101831.34
2023-01-12T23:51:28.493Z,101831.28
2023-01-12T23:54:01.215Z,101833.00
2023-01-12T23:56:31.019Z,101825.31
2023-01-12T23:58:58.975Z,101833.19
